Time;durP1;ratioP1;P1;durP2;ratioP2;P2;SDS_P1;SDS_P2;PMS_P1;PMS_P2;Temp;Humidity;BMP_temperature;BMP_pressure;BME280_temperature;BME280_humidity;BME280_pressure;Samples;Min_cycle;Max_cycle;Signal;HPM_P1;HPM_P2
2023/10/21 00:08:19;;;;;;;;;;;12.80;99.90;;;;;;21162622;27;19928;-79
2023/10/21 00:18:19;;;;;;;;;;;12.90;99.90;;;;;;21182199;27;19923;-79
2023/10/21 00:28:20;;;;;;;;;;;13.10;99.90;;;;;;21272898;27;19915;-79
2023/10/21 00:38:21;;;;;;;;;;;12.90;99.90;;;;;;21280090;27;19918;-79
2023/10/21 00:48:21;;;;;;;;;;;12.90;99.90;;;;;;21277065;27;19916;-79
2023/10/21 00:58:25;;;;;;;;;;;12.80;99.90;;;;;;21274629;27;19912;-80
2023/10/21 01:08:26;;;;;;;;;;;12.70;99.90;;;;;;21277626;27;19919;-79
2023/10/21 01:18:30;;;;;;;;;;;12.60;99.90;;;;;;21276017;27;19955;-80
2023/10/21 01:28:31;;;;;;;;;;;12.50;99.90;;;;;;21267289;27;19923;-80
2023/10/21 01:38:31;;;;;;;;;;;12.30;99.90;;;;;;21267693;27;19911;-80
2023/10/21 01:48:32;;;;;;;;;;;11.90;99.90;;;;;;21248798;27;19915;-79
2023/10/21 01:58:33;;;;;;;;;;;12.00;99.90;;;;;;21211995;27;19911;-79
2023/10/21 02:08:34;;;;;;;;;;;12.10;99.90;;;;;;21267737;27;19915;-79
2023/10/21 02:18:34;;;;;;;;;;;12.30;99.90;;;;;;21250137;27;19912;-80
2023/10/21 02:28:36;;;;;;;;;;;12.40;99.90;;;;;;21260391;27;20010;-81
2023/10/21 02:38:37;;;;;;;;;;;12.40;99.90;;;;;;21229376;27;19912;-80
2023/10/21 02:48:38;;;;;;;;;;;12.30;99.90;;;;;;21254329;27;20415;-81
2023/10/21 02:58:39;;;;;;;;;;;12.30;99.90;;;;;;21262118;27;19917;-80
2023/10/21 03:08:40;;;;;;;;;;;12.30;99.90;;;;;;21287625;27;19912;-80
2023/10/21 03:18:41;;;;;;;;;;;12.20;99.90;;;;;;21287622;27;19922;-80
2023/10/21 03:28:43;;;;;;;;;;;12.30;99.90;;;;;;21282884;27;19915;-81
2023/10/21 03:38:44;;;;;;;;;;;12.30;99.90;;;;;;21280580;27;19935;-80
2023/10/21 03:48:46;;;;;;;;;;;12.30;99.90;;;;;;21279485;27;20335;-81
2023/10/21 03:58:46;;;;;;;;;;;12.30;99.90;;;;;;21272305;27;19911;-80
2023/10/21 04:08:47;;;;;;;;;;;12.30;99.90;;;;;;21270600;27;20289;-80
2023/10/21 04:18:48;;;;;;;;;;;12.10;99.90;;;;;;21232979;27;20004;-81
2023/10/21 04:28:49;;;;;;;;;;;12.20;99.90;;;;;;21279748;27;19924;-80
2023/10/21 04:38:50;;;;;;;;;;;12.10;99.90;;;;;;21274395;27;20359;-80
2023/10/21 04:48:51;;;;;;;;;;;12.00;99.90;;;;;;21273829;27;19911;-80
2023/10/21 04:58:52;;;;;;;;;;;12.10;99.90;;;;;;21270855;27;19912;-79
2023/10/21 05:08:53;;;;;;;;;;;12.00;99.90;;;;;;21273271;27;20438;-79
2023/10/21 05:18:53;;;;;;;;;;;12.00;99.90;;;;;;21272612;27;20438;-79
2023/10/21 05:28:54;;;;;;;;;;;11.90;99.90;;;;;;21274764;27;19919;-80
2023/10/21 05:38:55;;;;;;;;;;;11.90;99.90;;;;;;21265383;27;19912;-80
2023/10/21 05:48:56;;;;;;;;;;;12.00;99.90;;;;;;21224701;27;19918;-80
2023/10/21 05:58:56;;;;;;;;;;;12.00;99.90;;;;;;21280106;27;19980;-79
2023/10/21 06:08:57;;;;;;;;;;;11.90;99.90;;;;;;21276389;27;20049;-78
2023/10/21 06:18:58;;;;;;;;;;;12.10;99.90;;;;;;21262553;27;19912;-80
2023/10/21 06:28:59;;;;;;;;;;;12.10;99.90;;;;;;21236780;27;19963;-79
2023/10/21 06:39:00;;;;;;;;;;;12.10;99.90;;;;;;21240787;27;19912;-80
2023/10/21 06:49:00;;;;;;;;;;;12.10;99.90;;;;;;21266010;27;19975;-80
2023/10/21 06:59:01;;;;;;;;;;;12.10;99.90;;;;;;21267892;27;19912;-79
2023/10/21 07:09:02;;;;;;;;;;;12.20;99.90;;;;;;21192913;27;19911;-80
2023/10/21 07:19:03;;;;;;;;;;;12.30;99.90;;;;;;21212121;27;19915;-79
2023/10/21 07:29:03;;;;;;;;;;;12.40;99.90;;;;;;21191928;27;19926;-80
2023/10/21 07:39:04;;;;;;;;;;;12.70;99.90;;;;;;21199570;27;19924;-79
2023/10/21 07:49:06;;;;;;;;;;;13.00;99.90;;;;;;21193380;27;19912;-78
2023/10/21 07:59:07;;;;;;;;;;;13.10;99.90;;;;;;21214050;27;20447;-79
2023/10/21 08:09:08;;;;;;;;;;;13.30;99.90;;;;;;21253415;27;19916;-80
2023/10/21 08:19:09;;;;;;;;;;;13.60;99.90;;;;;;21216547;27;19968;-80
2023/10/21 08:29:10;;;;;;;;;;;13.70;99.90;;;;;;21216014;27;19919;-80
2023/10/21 08:39:11;;;;;;;;;;;13.90;99.90;;;;;;21226016;27;20560;-80
2023/10/21 08:49:12;;;;;;;;;;;13.90;99.90;;;;;;21204832;27;19915;-81
2023/10/21 08:59:14;;;;;;;;;;;14.00;99.90;;;;;;21236092;27;19961;-79
2023/10/21 09:09:23;;;;;;;;;;;14.00;99.90;;;;;;21174440;27;19918;-79
2023/10/21 09:19:24;;;;;;;;;;;14.10;99.90;;;;;;21214617;27;20270;-81
2023/10/21 09:29:25;;;;;;;;;;;13.80;99.90;;;;;;21228478;27;19915;-80
2023/10/21 09:39:27;;;;;;;;;;;14.10;99.90;;;;;;21238194;27;19915;-79
2023/10/21 09:49:28;;;;;;;;;;;14.20;99.90;;;;;;21214595;27;19911;-80
2023/10/21 09:59:30;;;;;;;;;;;14.10;99.90;;;;;;21209270;27;19927;-81
2023/10/21 10:09:30;;;;;;;;;;;14.30;99.90;;;;;;21250738;27;20434;-79
2023/10/21 10:19:42;;;;;;;;;;;14.40;99.90;;;;;;21188099;27;19927;-79
2023/10/21 10:29:43;;;;;;;;;;;15.00;99.90;;;;;;21110270;27;19916;-80
2023/10/21 10:39:43;;;;;;;;;;;15.30;99.90;;;;;;21114155;28;19924;-79
2023/10/21 10:49:57;;;;;;;;;;;15.30;99.90;;;;;;21145216;28;19916;-80
2023/10/21 10:59:58;;;;;;;;;;;15.50;99.90;;;;;;21146617;28;19965;-80
2023/10/21 11:09:59;;;;;;;;;;;15.40;99.90;;;;;;21148420;27;19916;-81
2023/10/21 11:20:00;;;;;;;;;;;15.40;99.90;;;;;;21123900;27;20275;-79
2023/10/21 11:30:07;;;;;;;;;;;15.70;99.90;;;;;;21145001;27;20006;-80
2023/10/21 11:40:10;;;;;;;;;;;16.20;99.90;;;;;;21154712;27;19916;-80
2023/10/21 11:50:11;;;;;;;;;;;17.60;99.90;;;;;;21144607;27;20374;-81
2023/10/21 12:51:14;;;;;;;;;;;18.10;99.90;;;;;;21151239;27;19913;-82
2023/10/21 13:01:15;;;;;;;;;;;19.60;99.90;;;;;;21155256;27;19920;-81
2023/10/21 13:11:17;;;;;;;;;;;19.50;99.90;;;;;;21128441;27;19954;-81
2023/10/21 13:21:19;;;;;;;;;;;20.00;99.90;;;;;;21188265;27;19916;-80
2023/10/21 13:31:19;;;;;;;;;;;18.90;99.90;;;;;;21181353;27;19915;-81
2023/10/21 13:41:20;;;;;;;;;;;17.60;99.90;;;;;;21165697;27;20034;-80
2023/10/21 13:51:21;;;;;;;;;;;19.20;99.90;;;;;;21147013;27;20378;-81
2023/10/21 14:01:22;;;;;;;;;;;20.40;99.90;;;;;;21172927;27;19943;-82
2023/10/21 14:11:25;;;;;;;;;;;18.70;99.90;;;;;;21152544;27;20207;-81
2023/10/21 14:21:26;;;;;;;;;;;17.80;99.90;;;;;;21159715;27;19916;-81
2023/10/21 14:31:30;;;;;;;;;;;16.90;99.90;;;;;;21166453;27;20008;-82
2023/10/21 14:41:33;;;;;;;;;;;16.50;99.90;;;;;;21152316;28;20291;-81
2023/10/21 14:51:33;;;;;;;;;;;16.20;99.90;;;;;;21167597;28;19919;-80
2023/10/21 15:01:34;;;;;;;;;;;15.90;99.90;;;;;;21176058;27;19920;-80
2023/10/21 15:11:35;;;;;;;;;;;15.60;99.90;;;;;;21186387;27;20026;-82
2023/10/21 15:21:35;;;;;;;;;;;15.60;99.90;;;;;;21149184;27;19972;-80
2023/10/21 15:31:36;;;;;;;;;;;15.90;99.90;;;;;;21165331;27;19938;-81
2023/10/21 15:41:37;;;;;;;;;;;15.60;99.90;;;;;;21158389;27;19923;-82
2023/10/21 15:51:38;;;;;;;;;;;15.10;99.90;;;;;;21163532;27;20398;-81
2023/10/21 16:01:39;;;;;;;;;;;15.00;99.90;;;;;;21150626;27;19966;-81
2023/10/21 16:11:39;;;;;;;;;;;15.10;99.90;;;;;;21159636;27;19920;-82
2023/10/21 16:21:40;;;;;;;;;;;15.00;99.90;;;;;;21143819;27;19922;-82
2023/10/21 16:31:41;;;;;;;;;;;14.90;99.90;;;;;;21155957;27;19981;-81
2023/10/21 16:41:41;;;;;;;;;;;14.40;99.90;;;;;;21135538;27;20026;-80
2023/10/21 16:51:42;;;;;;;;;;;14.00;99.90;;;;;;21141538;27;19920;-82
2023/10/21 17:01:43;;;;;;;;;;;13.80;99.90;;;;;;21129874;27;19920;-80
2023/10/21 17:11:44;;;;;;;;;;;13.80;99.90;;;;;;21149054;27;19979;-80
2023/10/21 17:21:45;;;;;;;;;;;13.70;99.90;;;;;;21143535;27;20336;-80
2023/10/21 17:31:45;;;;;;;;;;;13.40;99.90;;;;;;21140119;27;19962;-82
2023/10/21 17:41:46;;;;;;;;;;;13.40;99.90;;;;;;21166384;27;20282;-81
2023/10/21 17:51:48;;;;;;;;;;;13.10;99.90;;;;;;21148442;27;20554;-80
2023/10/21 18:01:48;;;;;;;;;;;13.20;99.90;;;;;;21136419;27;19916;-81
2023/10/21 18:11:49;;;;;;;;;;;13.10;99.90;;;;;;21169160;27;20391;-82
2023/10/21 18:21:50;;;;;;;;;;;12.70;99.90;;;;;;21157064;27;19961;-80
2023/10/21 18:31:50;;;;;;;;;;;12.60;99.90;;;;;;21162503;27;19970;-81
2023/10/21 18:41:51;;;;;;;;;;;12.50;99.90;;;;;;21206177;27;19963;-81
2023/10/21 18:51:52;;;;;;;;;;;12.10;99.90;;;;;;21261653;27;20049;-81
2023/10/21 19:01:57;;;;;;;;;;;11.90;99.90;;;;;;21300852;27;19923;-80
2023/10/21 19:11:58;;;;;;;;;;;11.80;99.90;;;;;;21241722;27;19950;-80
2023/10/21 19:21:59;;;;;;;;;;;11.60;99.90;;;;;;21290112;27;19922;-81
2023/10/21 19:32:00;;;;;;;;;;;11.40;99.90;;;;;;21266100;27;20410;-80
2023/10/21 19:42:00;;;;;;;;;;;11.10;99.90;;;;;;21296700;27;19923;-81
2023/10/21 19:52:02;;;;;;;;;;;11.20;99.90;;;;;;21313242;27;19915;-81
2023/10/21 20:02:03;;;;;;;;;;;11.20;99.90;;;;;;21293874;27;19998;-80
2023/10/21 20:12:04;;;;;;;;;;;10.90;99.90;;;;;;21238534;27;19922;-80
2023/10/21 20:22:04;;;;;;;;;;;10.70;99.90;;;;;;21281299;27;19958;-81
2023/10/21 20:32:05;;;;;;;;;;;10.40;99.90;;;;;;21228160;27;20382;-81
2023/10/21 20:42:06;;;;;;;;;;;10.30;99.90;;;;;;21210901;27;20007;-80
2023/10/21 20:52:12;;;;;;;;;;;10.10;99.90;;;;;;21222450;27;20398;-80
2023/10/21 21:02:13;;;;;;;;;;;10.00;99.90;;;;;;21234586;27;19915;-80
2023/10/21 21:12:13;;;;;;;;;;;9.70;99.90;;;;;;21240124;27;19938;-81
2023/10/21 21:22:14;;;;;;;;;;;9.80;99.90;;;;;;21252125;27;19916;-80
2023/10/21 21:32:14;;;;;;;;;;;10.20;99.90;;;;;;21251135;27;19930;-80
2023/10/21 21:42:15;;;;;;;;;;;10.60;99.90;;;;;;21251021;27;19935;-79
2023/10/21 21:52:16;;;;;;;;;;;10.80;99.90;;;;;;21280598;27;20413;-79
2023/10/21 22:02:18;;;;;;;;;;;10.80;99.90;;;;;;21220352;27;19923;-80
2023/10/21 22:12:18;;;;;;;;;;;10.90;99.90;;;;;;21241014;27;19950;-79
2023/10/21 22:22:20;;;;;;;;;;;11.00;99.90;;;;;;21299015;27;19915;-79
2023/10/21 22:32:21;;;;;;;;;;;10.80;99.90;;;;;;21209990;27;20375;-79
2023/10/21 22:42:22;;;;;;;;;;;10.90;99.90;;;;;;21246387;27;19958;-80
2023/10/21 22:52:22;;;;;;;;;;;10.80;99.90;;;;;;21225793;27;19915;-80
2023/10/21 23:02:23;;;;;;;;;;;10.80;99.90;;;;;;21227580;27;19922;-79
2023/10/21 23:12:23;;;;;;;;;;;10.70;99.90;;;;;;21277555;27;19911;-79
2023/10/21 23:22:24;;;;;;;;;;;10.60;99.90;;;;;;21282461;27;19922;-79
2023/10/21 23:32:25;;;;;;;;;;;10.60;99.90;;;;;;21290831;27;19923;-80
2023/10/21 23:42:29;;;;;;;;;;;10.40;99.90;;;;;;21239382;27;20409;-80
2023/10/21 23:52:30;;;;;;;;;;;10.40;99.90;;;;;;21242013;27;20382;-80
